sensor_id;sensor_type;location;lat;lon;timestamp;P1;durP1;ratioP1;P2;durP2;ratioP2
27365;SDS011;14837;57.148;-2.144;2022-09-09T00:03:51;21.73;;;6.55;;
27365;SDS011;14837;57.148;-2.144;2022-09-09T00:14:23;17.33;;;5.55;;
27365;SDS011;14837;57.148;-2.144;2022-09-09T00:16:54;34.63;;;8.75;;
27365;SDS011;14837;57.148;-2.144;2022-09-09T00:19:23;22.80;;;6.55;;
27365;SDS011;14837;57.148;-2.144;2022-09-09T00:21:53;20.30;;;7.03;;
27365;SDS011;14837;57.148;-2.144;2022-09-09T00:24:24;15.57;;;5.80;;
27365;SDS011;14837;57.148;-2.144;2022-09-09T00:26:57;20.35;;;5.93;;
27365;SDS011;14837;57.148;-2.144;2022-09-09T00:29:35;19.67;;;6.10;;
27365;SDS011;14837;57.148;-2.144;2022-09-09T00:32:17;19.45;;;5.95;;
27365;SDS011;14837;57.148;-2.144;2022-09-09T00:34:49;21.05;;;5.07;;
27365;SDS011;14837;57.148;-2.144;2022-09-09T00:37:17;12.63;;;5.30;;
27365;SDS011;14837;57.148;-2.144;2022-09-09T00:39:45;16.85;;;6.40;;
27365;SDS011;14837;57.148;-2.144;2022-09-09T00:44:46;15.27;;;5.78;;
27365;SDS011;14837;57.148;-2.144;2022-09-09T00:57:39;29.27;;;9.15;;
27365;SDS011;14837;57.148;-2.144;2022-09-09T01:02:50;30.77;;;8.45;;
27365;SDS011;14837;57.148;-2.144;2022-09-09T01:08:05;29.13;;;7.25;;
27365;SDS011;14837;57.148;-2.144;2022-09-09T01:10:47;34.05;;;8.88;;
27365;SDS011;14837;57.148;-2.144;2022-09-09T01:13:26;30.77;;;7.38;;
27365;SDS011;14837;57.148;-2.144;2022-09-09T01:15:53;34.05;;;8.40;;
27365;SDS011;14837;57.148;-2.144;2022-09-09T01:18:27;28.13;;;7.70;;
27365;SDS011;14837;57.148;-2.144;2022-09-09T01:26:08;25.90;;;7.43;;
27365;SDS011;14837;57.148;-2.144;2022-09-09T01:28:36;29.00;;;7.07;;
27365;SDS011;14837;57.148;-2.144;2022-09-09T01:31:04;29.25;;;9.45;;
27365;SDS011;14837;57.148;-2.144;2022-09-09T01:33:32;26.10;;;7.43;;
27365;SDS011;14837;57.148;-2.144;2022-09-09T01:38:31;25.98;;;7.80;;
27365;SDS011;14837;57.148;-2.144;2022-09-09T01:40:59;24.38;;;6.72;;
27365;SDS011;14837;57.148;-2.144;2022-09-09T01:43:25;31.30;;;8.65;;
27365;SDS011;14837;57.148;-2.144;2022-09-09T01:45:54;20.90;;;6.80;;
27365;SDS011;14837;57.148;-2.144;2022-09-09T01:48:22;28.63;;;7.95;;
27365;SDS011;14837;57.148;-2.144;2022-09-09T01:50:50;18.38;;;6.95;;
27365;SDS011;14837;57.148;-2.144;2022-09-09T01:53:19;28.60;;;7.22;;
27365;SDS011;14837;57.148;-2.144;2022-09-09T01:55:51;15.32;;;6.13;;
27365;SDS011;14837;57.148;-2.144;2022-09-09T01:58:37;18.48;;;6.70;;
27365;SDS011;14837;57.148;-2.144;2022-09-09T02:03:37;19.05;;;6.70;;
27365;SDS011;14837;57.148;-2.144;2022-09-09T02:11:07;24.65;;;8.80;;
27365;SDS011;14837;57.148;-2.144;2022-09-09T02:13:37;20.92;;;6.93;;
27365;SDS011;14837;57.148;-2.144;2022-09-09T02:16:08;15.88;;;6.03;;
27365;SDS011;14837;57.148;-2.144;2022-09-09T02:18:42;18.73;;;5.30;;
27365;SDS011;14837;57.148;-2.144;2022-09-09T02:21:11;23.40;;;6.30;;
27365;SDS011;14837;57.148;-2.144;2022-09-09T02:23:40;18.45;;;4.82;;
27365;SDS011;14837;57.148;-2.144;2022-09-09T02:26:11;18.55;;;5.28;;
27365;SDS011;14837;57.148;-2.144;2022-09-09T02:28:41;22.13;;;5.95;;
27365;SDS011;14837;57.148;-2.144;2022-09-09T02:31:08;24.33;;;5.25;;
27365;SDS011;14837;57.148;-2.144;2022-09-09T02:33:37;13.27;;;4.28;;
27365;SDS011;14837;57.148;-2.144;2022-09-09T02:36:06;19.75;;;4.60;;
27365;SDS011;14837;57.148;-2.144;2022-09-09T02:38:35;14.77;;;4.00;;
27365;SDS011;14837;57.148;-2.144;2022-09-09T02:41:03;20.05;;;4.97;;
27365;SDS011;14837;57.148;-2.144;2022-09-09T02:43:31;20.33;;;5.18;;
27365;SDS011;14837;57.148;-2.144;2022-09-09T02:48:32;22.27;;;5.22;;
27365;SDS011;14837;57.148;-2.144;2022-09-09T02:51:08;25.25;;;5.38;;
27365;SDS011;14837;57.148;-2.144;2022-09-09T02:53:39;25.30;;;6.65;;
27365;SDS011;14837;57.148;-2.144;2022-09-09T02:56:15;25.13;;;6.05;;
27365;SDS011;14837;57.148;-2.144;2022-09-09T02:58:42;26.05;;;6.95;;
27365;SDS011;14837;57.148;-2.144;2022-09-09T03:01:08;19.30;;;5.68;;
27365;SDS011;14837;57.148;-2.144;2022-09-09T03:03:35;24.65;;;6.72;;
27365;SDS011;14837;57.148;-2.144;2022-09-09T03:06:02;23.30;;;6.75;;
27365;SDS011;14837;57.148;-2.144;2022-09-09T03:08:28;28.45;;;8.80;;
27365;SDS011;14837;57.148;-2.144;2022-09-09T03:10:55;29.08;;;9.15;;
27365;SDS011;14837;57.148;-2.144;2022-09-09T03:13:22;30.60;;;7.20;;
27365;SDS011;14837;57.148;-2.144;2022-09-09T03:15:48;35.15;;;7.13;;
27365;SDS011;14837;57.148;-2.144;2022-09-09T03:18:15;34.78;;;8.60;;
27365;SDS011;14837;57.148;-2.144;2022-09-09T03:20:41;29.27;;;6.72;;
27365;SDS011;14837;57.148;-2.144;2022-09-09T03:23:08;25.83;;;6.43;;
27365;SDS011;14837;57.148;-2.144;2022-09-09T03:25:46;25.60;;;6.97;;
27365;SDS011;14837;57.148;-2.144;2022-09-09T03:28:12;39.70;;;9.40;;
27365;SDS011;14837;57.148;-2.144;2022-09-09T03:30:39;25.25;;;6.72;;
27365;SDS011;14837;57.148;-2.144;2022-09-09T03:33:05;30.73;;;7.85;;
27365;SDS011;14837;57.148;-2.144;2022-09-09T03:35:32;23.73;;;5.85;;
27365;SDS011;14837;57.148;-2.144;2022-09-09T03:37:59;25.80;;;7.32;;
27365;SDS011;14837;57.148;-2.144;2022-09-09T03:40:26;33.97;;;8.60;;
27365;SDS011;14837;57.148;-2.144;2022-09-09T03:42:53;23.23;;;6.70;;
27365;SDS011;14837;57.148;-2.144;2022-09-09T03:45:19;22.88;;;6.20;;
27365;SDS011;14837;57.148;-2.144;2022-09-09T03:47:46;28.95;;;7.18;;
27365;SDS011;14837;57.148;-2.144;2022-09-09T03:50:12;32.30;;;7.45;;
27365;SDS011;14837;57.148;-2.144;2022-09-09T03:52:40;27.15;;;8.77;;
27365;SDS011;14837;57.148;-2.144;2022-09-09T03:55:07;22.60;;;6.78;;
27365;SDS011;14837;57.148;-2.144;2022-09-09T03:57:34;27.42;;;7.20;;
27365;SDS011;14837;57.148;-2.144;2022-09-09T04:00:03;24.35;;;7.20;;
27365;SDS011;14837;57.148;-2.144;2022-09-09T04:02:29;30.10;;;7.15;;
27365;SDS011;14837;57.148;-2.144;2022-09-09T04:04:56;26.90;;;7.00;;
27365;SDS011;14837;57.148;-2.144;2022-09-09T04:07:23;17.73;;;5.72;;
27365;SDS011;14837;57.148;-2.144;2022-09-09T04:09:49;24.10;;;5.60;;
27365;SDS011;14837;57.148;-2.144;2022-09-09T04:12:15;21.98;;;5.97;;
27365;SDS011;14837;57.148;-2.144;2022-09-09T04:14:42;19.15;;;5.75;;
27365;SDS011;14837;57.148;-2.144;2022-09-09T04:17:09;18.77;;;4.82;;
27365;SDS011;14837;57.148;-2.144;2022-09-09T04:19:36;14.43;;;4.82;;
27365;SDS011;14837;57.148;-2.144;2022-09-09T04:22:03;21.50;;;6.07;;
27365;SDS011;14837;57.148;-2.144;2022-09-09T04:24:30;12.95;;;5.47;;
27365;SDS011;14837;57.148;-2.144;2022-09-09T04:26:56;24.38;;;5.30;;
27365;SDS011;14837;57.148;-2.144;2022-09-09T04:29:23;20.63;;;5.07;;
27365;SDS011;14837;57.148;-2.144;2022-09-09T04:31:50;14.48;;;5.50;;
27365;SDS011;14837;57.148;-2.144;2022-09-09T04:34:16;20.42;;;6.97;;
27365;SDS011;14837;57.148;-2.144;2022-09-09T04:36:43;21.35;;;4.93;;
27365;SDS011;14837;57.148;-2.144;2022-09-09T04:39:10;18.10;;;4.60;;
27365;SDS011;14837;57.148;-2.144;2022-09-09T04:41:36;22.00;;;5.03;;
27365;SDS011;14837;57.148;-2.144;2022-09-09T04:44:03;16.17;;;5.80;;
27365;SDS011;14837;57.148;-2.144;2022-09-09T04:46:30;22.08;;;5.20;;
27365;SDS011;14837;57.148;-2.144;2022-09-09T04:48:56;30.00;;;9.25;;
27365;SDS011;14837;57.148;-2.144;2022-09-09T04:51:23;19.50;;;7.32;;
27365;SDS011;14837;57.148;-2.144;2022-09-09T04:53:49;30.23;;;7.38;;
27365;SDS011;14837;57.148;-2.144;2022-09-09T04:56:17;31.17;;;7.50;;
27365;SDS011;14837;57.148;-2.144;2022-09-09T04:58:44;30.23;;;7.70;;
27365;SDS011;14837;57.148;-2.144;2022-09-09T05:01:16;19.92;;;5.55;;
27365;SDS011;14837;57.148;-2.144;2022-09-09T05:03:46;23.58;;;5.43;;
27365;SDS011;14837;57.148;-2.144;2022-09-09T05:06:13;18.25;;;5.30;;
27365;SDS011;14837;57.148;-2.144;2022-09-09T05:08:41;24.13;;;6.22;;
27365;SDS011;14837;57.148;-2.144;2022-09-09T05:11:21;15.07;;;4.80;;
27365;SDS011;14837;57.148;-2.144;2022-09-09T05:13:49;16.52;;;5.97;;
27365;SDS011;14837;57.148;-2.144;2022-09-09T05:16:16;25.83;;;7.30;;
27365;SDS011;14837;57.148;-2.144;2022-09-09T05:18:43;23.73;;;7.07;;
27365;SDS011;14837;57.148;-2.144;2022-09-09T05:21:11;12.77;;;5.68;;
27365;SDS011;14837;57.148;-2.144;2022-09-09T05:23:38;23.85;;;6.28;;
27365;SDS011;14837;57.148;-2.144;2022-09-09T05:26:04;20.27;;;6.43;;
27365;SDS011;14837;57.148;-2.144;2022-09-09T05:28:33;30.67;;;7.63;;
27365;SDS011;14837;57.148;-2.144;2022-09-09T05:31:01;20.45;;;5.45;;
27365;SDS011;14837;57.148;-2.144;2022-09-09T05:33:30;19.48;;;6.55;;
27365;SDS011;14837;57.148;-2.144;2022-09-09T05:35:58;19.42;;;6.45;;
27365;SDS011;14837;57.148;-2.144;2022-09-09T05:38:25;17.80;;;5.65;;
27365;SDS011;14837;57.148;-2.144;2022-09-09T05:40:54;29.80;;;7.03;;
27365;SDS011;14837;57.148;-2.144;2022-09-09T05:43:22;28.98;;;7.22;;
27365;SDS011;14837;57.148;-2.144;2022-09-09T05:45:58;27.23;;;7.10;;
27365;SDS011;14837;57.148;-2.144;2022-09-09T05:48:27;25.25;;;6.75;;
27365;SDS011;14837;57.148;-2.144;2022-09-09T05:50:54;28.15;;;7.32;;
27365;SDS011;14837;57.148;-2.144;2022-09-09T05:53:20;24.45;;;7.90;;
27365;SDS011;14837;57.148;-2.144;2022-09-09T05:55:47;28.75;;;6.72;;
27365;SDS011;14837;57.148;-2.144;2022-09-09T05:58:14;32.63;;;7.70;;
27365;SDS011;14837;57.148;-2.144;2022-09-09T06:00:43;35.42;;;7.43;;
27365;SDS011;14837;57.148;-2.144;2022-09-09T06:03:11;32.13;;;7.68;;
27365;SDS011;14837;57.148;-2.144;2022-09-09T06:05:38;33.80;;;8.52;;
27365;SDS011;14837;57.148;-2.144;2022-09-09T06:08:04;36.35;;;8.73;;
27365;SDS011;14837;57.148;-2.144;2022-09-09T06:10:31;47.45;;;10.50;;
27365;SDS011;14837;57.148;-2.144;2022-09-09T06:12:58;39.88;;;8.63;;
27365;SDS011;14837;57.148;-2.144;2022-09-09T06:15:24;26.98;;;8.73;;
27365;SDS011;14837;57.148;-2.144;2022-09-09T06:17:54;30.83;;;7.88;;
27365;SDS011;14837;57.148;-2.144;2022-09-09T06:20:21;27.77;;;7.47;;
27365;SDS011;14837;57.148;-2.144;2022-09-09T06:22:48;32.45;;;9.38;;
27365;SDS011;14837;57.148;-2.144;2022-09-09T06:25:14;28.48;;;8.82;;
27365;SDS011;14837;57.148;-2.144;2022-09-09T06:27:41;33.67;;;9.40;;
27365;SDS011;14837;57.148;-2.144;2022-09-09T06:30:08;34.00;;;8.70;;
27365;SDS011;14837;57.148;-2.144;2022-09-09T06:32:36;28.33;;;7.45;;
27365;SDS011;14837;57.148;-2.144;2022-09-09T06:35:04;27.58;;;7.75;;
27365;SDS011;14837;57.148;-2.144;2022-09-09T06:37:30;38.92;;;8.48;;
27365;SDS011;14837;57.148;-2.144;2022-09-09T06:40:00;21.27;;;8.00;;
27365;SDS011;14837;57.148;-2.144;2022-09-09T06:42:26;32.97;;;8.65;;
27365;SDS011;14837;57.148;-2.144;2022-09-09T06:44:53;38.45;;;8.38;;
27365;SDS011;14837;57.148;-2.144;2022-09-09T06:47:20;30.85;;;8.00;;
27365;SDS011;14837;57.148;-2.144;2022-09-09T06:49:49;26.15;;;6.90;;
27365;SDS011;14837;57.148;-2.144;2022-09-09T06:52:16;31.80;;;8.27;;
27365;SDS011;14837;57.148;-2.144;2022-09-09T06:54:44;35.03;;;7.50;;
27365;SDS011;14837;57.148;-2.144;2022-09-09T06:57:11;34.05;;;7.65;;
27365;SDS011;14837;57.148;-2.144;2022-09-09T06:59:58;35.05;;;6.97;;
27365;SDS011;14837;57.148;-2.144;2022-09-09T07:02:24;29.73;;;9.13;;
27365;SDS011;14837;57.148;-2.144;2022-09-09T07:04:51;28.45;;;8.27;;
27365;SDS011;14837;57.148;-2.144;2022-09-09T07:07:17;23.05;;;5.78;;
27365;SDS011;14837;57.148;-2.144;2022-09-09T07:09:44;26.17;;;9.13;;
27365;SDS011;14837;57.148;-2.144;2022-09-09T07:12:12;27.80;;;7.32;;
27365;SDS011;14837;57.148;-2.144;2022-09-09T07:14:38;27.10;;;8.57;;
27365;SDS011;14837;57.148;-2.144;2022-09-09T07:17:05;29.83;;;6.72;;
27365;SDS011;14837;57.148;-2.144;2022-09-09T07:19:32;25.50;;;7.53;;
27365;SDS011;14837;57.148;-2.144;2022-09-09T07:21:58;27.00;;;7.30;;
27365;SDS011;14837;57.148;-2.144;2022-09-09T07:24:25;30.55;;;7.85;;
27365;SDS011;14837;57.148;-2.144;2022-09-09T07:26:51;25.42;;;7.05;;
27365;SDS011;14837;57.148;-2.144;2022-09-09T07:29:18;39.92;;;8.38;;
27365;SDS011;14837;57.148;-2.144;2022-09-09T07:31:46;33.72;;;7.43;;
27365;SDS011;14837;57.148;-2.144;2022-09-09T07:36:54;34.28;;;7.53;;
27365;SDS011;14837;57.148;-2.144;2022-09-09T07:39:24;32.53;;;8.40;;
27365;SDS011;14837;57.148;-2.144;2022-09-09T07:41:50;25.10;;;7.18;;
27365;SDS011;14837;57.148;-2.144;2022-09-09T07:44:18;34.65;;;7.03;;
27365;SDS011;14837;57.148;-2.144;2022-09-09T07:46:47;30.83;;;7.32;;
27365;SDS011;14837;57.148;-2.144;2022-09-09T07:49:14;29.73;;;7.28;;
27365;SDS011;14837;57.148;-2.144;2022-09-09T07:51:42;18.90;;;5.88;;
27365;SDS011;14837;57.148;-2.144;2022-09-09T07:54:10;20.55;;;6.38;;
27365;SDS011;14837;57.148;-2.144;2022-09-09T07:56:37;26.58;;;6.43;;
27365;SDS011;14837;57.148;-2.144;2022-09-09T07:59:05;21.75;;;6.35;;
27365;SDS011;14837;57.148;-2.144;2022-09-09T08:01:39;25.83;;;6.07;;
27365;SDS011;14837;57.148;-2.144;2022-09-09T08:04:08;25.98;;;7.63;;
27365;SDS011;14837;57.148;-2.144;2022-09-09T08:06:36;29.25;;;7.47;;
27365;SDS011;14837;57.148;-2.144;2022-09-09T08:09:04;25.45;;;6.90;;
27365;SDS011;14837;57.148;-2.144;2022-09-09T08:11:31;27.75;;;7.20;;
27365;SDS011;14837;57.148;-2.144;2022-09-09T08:14:04;31.23;;;7.03;;
27365;SDS011;14837;57.148;-2.144;2022-09-09T08:16:32;31.20;;;6.25;;
27365;SDS011;14837;57.148;-2.144;2022-09-09T08:18:59;20.60;;;6.25;;
27365;SDS011;14837;57.148;-2.144;2022-09-09T08:21:27;22.58;;;6.60;;
27365;SDS011;14837;57.148;-2.144;2022-09-09T08:23:54;25.05;;;6.40;;
27365;SDS011;14837;57.148;-2.144;2022-09-09T08:26:27;23.55;;;5.97;;
27365;SDS011;14837;57.148;-2.144;2022-09-09T08:28:55;23.08;;;5.97;;
27365;SDS011;14837;57.148;-2.144;2022-09-09T08:31:23;22.63;;;6.53;;
27365;SDS011;14837;57.148;-2.144;2022-09-09T08:33:50;21.23;;;6.07;;
27365;SDS011;14837;57.148;-2.144;2022-09-09T08:36:22;14.18;;;4.68;;
27365;SDS011;14837;57.148;-2.144;2022-09-09T08:38:50;23.52;;;6.22;;
27365;SDS011;14837;57.148;-2.144;2022-09-09T08:43:58;21.85;;;5.88;;
27365;SDS011;14837;57.148;-2.144;2022-09-09T08:46:30;24.30;;;5.88;;
27365;SDS011;14837;57.148;-2.144;2022-09-09T08:49:01;21.30;;;4.72;;
27365;SDS011;14837;57.148;-2.144;2022-09-09T08:51:29;23.98;;;6.47;;
27365;SDS011;14837;57.148;-2.144;2022-09-09T08:53:57;23.35;;;5.35;;
27365;SDS011;14837;57.148;-2.144;2022-09-09T08:56:25;26.98;;;5.78;;
27365;SDS011;14837;57.148;-2.144;2022-09-09T08:58:53;25.13;;;6.95;;
27365;SDS011;14837;57.148;-2.144;2022-09-09T09:06:23;23.60;;;6.05;;
27365;SDS011;14837;57.148;-2.144;2022-09-09T09:11:19;23.08;;;5.15;;
27365;SDS011;14837;57.148;-2.144;2022-09-09T09:16:23;21.73;;;5.30;;
27365;SDS011;14837;57.148;-2.144;2022-09-09T09:18:51;23.13;;;5.57;;
27365;SDS011;14837;57.148;-2.144;2022-09-09T09:21:20;19.95;;;4.68;;
27365;SDS011;14837;57.148;-2.144;2022-09-09T09:23:51;24.23;;;6.95;;
27365;SDS011;14837;57.148;-2.144;2022-09-09T09:26:20;23.73;;;5.55;;
27365;SDS011;14837;57.148;-2.144;2022-09-09T09:28:48;25.58;;;5.72;;
27365;SDS011;14837;57.148;-2.144;2022-09-09T09:31:14;21.25;;;5.43;;
27365;SDS011;14837;57.148;-2.144;2022-09-09T09:36:12;28.35;;;6.93;;
27365;SDS011;14837;57.148;-2.144;2022-09-09T09:38:55;17.70;;;4.63;;
27365;SDS011;14837;57.148;-2.144;2022-09-09T09:41:42;15.68;;;5.07;;
27365;SDS011;14837;57.148;-2.144;2022-09-09T09:44:22;18.27;;;5.10;;
27365;SDS011;14837;57.148;-2.144;2022-09-09T09:46:49;23.30;;;5.47;;
27365;SDS011;14837;57.148;-2.144;2022-09-09T09:49:16;22.70;;;6.22;;
27365;SDS011;14837;57.148;-2.144;2022-09-09T09:51:43;19.30;;;4.78;;
27365;SDS011;14837;57.148;-2.144;2022-09-09T09:54:14;16.48;;;4.93;;
27365;SDS011;14837;57.148;-2.144;2022-09-09T09:56:42;23.45;;;6.07;;
27365;SDS011;14837;57.148;-2.144;2022-09-09T10:04:38;12.88;;;4.00;;
27365;SDS011;14837;57.148;-2.144;2022-09-09T10:07:39;20.63;;;4.90;;
27365;SDS011;14837;57.148;-2.144;2022-09-09T10:09:59;20.25;;;5.70;;
27365;SDS011;14837;57.148;-2.144;2022-09-09T10:22:32;16.58;;;4.65;;
27365;SDS011;14837;57.148;-2.144;2022-09-09T10:25:18;16.33;;;4.43;;
27365;SDS011;14837;57.148;-2.144;2022-09-09T10:33:04;13.50;;;4.22;;
27365;SDS011;14837;57.148;-2.144;2022-09-09T10:35:43;18.88;;;3.97;;
27365;SDS011;14837;57.148;-2.144;2022-09-09T10:38:24;19.15;;;5.40;;
27365;SDS011;14837;57.148;-2.144;2022-09-09T10:43:32;19.10;;;4.30;;
27365;SDS011;14837;57.148;-2.144;2022-09-09T10:46:12;13.30;;;4.20;;
27365;SDS011;14837;57.148;-2.144;2022-09-09T10:48:46;18.30;;;4.55;;
27365;SDS011;14837;57.148;-2.144;2022-09-09T10:53:47;20.55;;;5.18;;
27365;SDS011;14837;57.148;-2.144;2022-09-09T10:56:15;20.48;;;6.43;;
27365;SDS011;14837;57.148;-2.144;2022-09-09T10:58:44;11.80;;;4.32;;
27365;SDS011;14837;57.148;-2.144;2022-09-09T11:01:19;20.08;;;5.32;;
27365;SDS011;14837;57.148;-2.144;2022-09-09T11:03:47;13.95;;;4.88;;
27365;SDS011;14837;57.148;-2.144;2022-09-09T11:06:19;13.73;;;4.45;;
27365;SDS011;14837;57.148;-2.144;2022-09-09T11:08:47;18.13;;;4.57;;
27365;SDS011;14837;57.148;-2.144;2022-09-09T11:11:21;11.38;;;5.28;;
27365;SDS011;14837;57.148;-2.144;2022-09-09T11:21:42;16.92;;;4.20;;
27365;SDS011;14837;57.148;-2.144;2022-09-09T11:24:17;21.40;;;5.15;;
27365;SDS011;14837;57.148;-2.144;2022-09-09T11:26:46;23.35;;;5.47;;
27365;SDS011;14837;57.148;-2.144;2022-09-09T11:32:06;19.98;;;6.22;;
27365;SDS011;14837;57.148;-2.144;2022-09-09T11:34:36;17.20;;;5.18;;
27365;SDS011;14837;57.148;-2.144;2022-09-09T11:37:16;14.93;;;3.70;;
27365;SDS011;14837;57.148;-2.144;2022-09-09T11:42:20;14.52;;;3.83;;
27365;SDS011;14837;57.148;-2.144;2022-09-09T11:44:48;11.63;;;3.90;;
27365;SDS011;14837;57.148;-2.144;2022-09-09T11:47:16;19.90;;;3.90;;
27365;SDS011;14837;57.148;-2.144;2022-09-09T11:49:43;18.38;;;3.28;;
27365;SDS011;14837;57.148;-2.144;2022-09-09T11:53:03;13.10;;;3.35;;
27365;SDS011;14837;57.148;-2.144;2022-09-09T11:54:58;17.55;;;4.15;;
27365;SDS011;14837;57.148;-2.144;2022-09-09T11:57:35;13.55;;;3.42;;
27365;SDS011;14837;57.148;-2.144;2022-09-09T12:00:03;10.60;;;3.05;;
27365;SDS011;14837;57.148;-2.144;2022-09-09T12:02:29;13.55;;;4.00;;
27365;SDS011;14837;57.148;-2.144;2022-09-09T12:10:05;14.80;;;3.88;;
27365;SDS011;14837;57.148;-2.144;2022-09-09T12:12:45;10.90;;;2.67;;
27365;SDS011;14837;57.148;-2.144;2022-09-09T12:17:42;9.80;;;2.88;;
27365;SDS011;14837;57.148;-2.144;2022-09-09T12:20:12;7.63;;;3.30;;
27365;SDS011;14837;57.148;-2.144;2022-09-09T12:28:11;9.80;;;2.95;;
27365;SDS011;14837;57.148;-2.144;2022-09-09T12:33:33;16.98;;;3.20;;
27365;SDS011;14837;57.148;-2.144;2022-09-09T12:36:00;6.18;;;2.55;;
27365;SDS011;14837;57.148;-2.144;2022-09-09T12:38:32;10.00;;;3.33;;
27365;SDS011;14837;57.148;-2.144;2022-09-09T12:40:59;18.02;;;4.05;;
27365;SDS011;14837;57.148;-2.144;2022-09-09T12:43:27;10.98;;;2.78;;
27365;SDS011;14837;57.148;-2.144;2022-09-09T12:46:01;8.80;;;3.17;;
27365;SDS011;14837;57.148;-2.144;2022-09-09T12:48:36;9.90;;;2.97;;
27365;SDS011;14837;57.148;-2.144;2022-09-09T12:51:05;11.25;;;2.70;;
27365;SDS011;14837;57.148;-2.144;2022-09-09T12:53:33;12.35;;;4.55;;
27365;SDS011;14837;57.148;-2.144;2022-09-09T12:56:08;8.30;;;2.30;;
27365;SDS011;14837;57.148;-2.144;2022-09-09T12:58:35;8.63;;;3.10;;
27365;SDS011;14837;57.148;-2.144;2022-09-09T13:01:03;10.55;;;2.38;;
27365;SDS011;14837;57.148;-2.144;2022-09-09T13:03:33;4.97;;;2.05;;
27365;SDS011;14837;57.148;-2.144;2022-09-09T13:06:10;7.47;;;2.65;;
27365;SDS011;14837;57.148;-2.144;2022-09-09T13:08:38;6.38;;;2.38;;
27365;SDS011;14837;57.148;-2.144;2022-09-09T13:11:07;10.82;;;2.47;;
27365;SDS011;14837;57.148;-2.144;2022-09-09T13:13:37;8.38;;;3.03;;
27365;SDS011;14837;57.148;-2.144;2022-09-09T13:16:05;9.52;;;2.97;;
27365;SDS011;14837;57.148;-2.144;2022-09-09T13:18:37;14.32;;;2.83;;
27365;SDS011;14837;57.148;-2.144;2022-09-09T13:21:06;11.80;;;3.05;;
27365;SDS011;14837;57.148;-2.144;2022-09-09T13:23:34;7.60;;;2.60;;
27365;SDS011;14837;57.148;-2.144;2022-09-09T13:26:25;11.80;;;2.58;;
27365;SDS011;14837;57.148;-2.144;2022-09-09T13:28:48;15.10;;;3.10;;
27365;SDS011;14837;57.148;-2.144;2022-09-09T13:31:20;6.07;;;2.30;;
27365;SDS011;14837;57.148;-2.144;2022-09-09T13:33:47;7.72;;;2.30;;
27365;SDS011;14837;57.148;-2.144;2022-09-09T13:36:13;8.40;;;2.35;;
27365;SDS011;14837;57.148;-2.144;2022-09-09T13:38:56;9.40;;;3.17;;
27365;SDS011;14837;57.148;-2.144;2022-09-09T13:41:24;11.50;;;2.58;;
27365;SDS011;14837;57.148;-2.144;2022-09-09T13:43:51;14.82;;;2.92;;
27365;SDS011;14837;57.148;-2.144;2022-09-09T13:48:57;8.52;;;2.67;;
27365;SDS011;14837;57.148;-2.144;2022-09-09T13:51:34;12.57;;;2.88;;
27365;SDS011;14837;57.148;-2.144;2022-09-09T13:54:06;7.88;;;2.83;;
27365;SDS011;14837;57.148;-2.144;2022-09-09T13:56:35;13.45;;;3.45;;
27365;SDS011;14837;57.148;-2.144;2022-09-09T13:59:03;12.32;;;3.10;;
27365;SDS011;14837;57.148;-2.144;2022-09-09T14:01:30;12.98;;;3.05;;
27365;SDS011;14837;57.148;-2.144;2022-09-09T14:03:57;8.07;;;2.50;;
27365;SDS011;14837;57.148;-2.144;2022-09-09T14:06:25;9.10;;;2.58;;
27365;SDS011;14837;57.148;-2.144;2022-09-09T14:08:51;13.13;;;3.00;;
27365;SDS011;14837;57.148;-2.144;2022-09-09T14:11:18;14.98;;;3.35;;
27365;SDS011;14837;57.148;-2.144;2022-09-09T14:13:45;7.65;;;2.75;;
27365;SDS011;14837;57.148;-2.144;2022-09-09T14:16:11;10.40;;;3.30;;
27365;SDS011;14837;57.148;-2.144;2022-09-09T14:18:38;7.65;;;2.80;;
27365;SDS011;14837;57.148;-2.144;2022-09-09T14:21:05;8.93;;;2.40;;
27365;SDS011;14837;57.148;-2.144;2022-09-09T14:23:31;8.73;;;2.95;;
27365;SDS011;14837;57.148;-2.144;2022-09-09T14:25:58;9.07;;;2.42;;
27365;SDS011;14837;57.148;-2.144;2022-09-09T14:28:25;10.70;;;3.47;;
27365;SDS011;14837;57.148;-2.144;2022-09-09T14:31:11;12.38;;;3.03;;
27365;SDS011;14837;57.148;-2.144;2022-09-09T14:33:39;8.60;;;2.60;;
27365;SDS011;14837;57.148;-2.144;2022-09-09T14:36:06;7.00;;;2.63;;
27365;SDS011;14837;57.148;-2.144;2022-09-09T14:38:33;14.48;;;2.53;;
27365;SDS011;14837;57.148;-2.144;2022-09-09T14:41:00;4.53;;;1.77;;
27365;SDS011;14837;57.148;-2.144;2022-09-09T14:43:29;9.23;;;2.60;;
27365;SDS011;14837;57.148;-2.144;2022-09-09T14:46:03;12.07;;;2.85;;
27365;SDS011;14837;57.148;-2.144;2022-09-09T14:48:32;9.50;;;3.10;;
27365;SDS011;14837;57.148;-2.144;2022-09-09T14:51:15;6.07;;;2.40;;
27365;SDS011;14837;57.148;-2.144;2022-09-09T14:53:42;9.48;;;2.33;;
27365;SDS011;14837;57.148;-2.144;2022-09-09T14:56:17;5.60;;;2.05;;
27365;SDS011;14837;57.148;-2.144;2022-09-09T14:58:44;9.05;;;2.55;;
27365;SDS011;14837;57.148;-2.144;2022-09-09T15:01:11;5.50;;;2.38;;
27365;SDS011;14837;57.148;-2.144;2022-09-09T15:03:39;6.68;;;2.10;;
27365;SDS011;14837;57.148;-2.144;2022-09-09T15:06:09;7.88;;;2.45;;
27365;SDS011;14837;57.148;-2.144;2022-09-09T15:08:37;12.95;;;2.20;;
27365;SDS011;14837;57.148;-2.144;2022-09-09T15:11:08;8.98;;;2.97;;
27365;SDS011;14837;57.148;-2.144;2022-09-09T15:13:34;14.98;;;3.30;;
27365;SDS011;14837;57.148;-2.144;2022-09-09T15:16:04;10.77;;;3.10;;
27365;SDS011;14837;57.148;-2.144;2022-09-09T15:18:31;10.77;;;2.92;;
27365;SDS011;14837;57.148;-2.144;2022-09-09T15:20:59;13.75;;;3.15;;
27365;SDS011;14837;57.148;-2.144;2022-09-09T15:23:27;7.97;;;3.20;;
27365;SDS011;14837;57.148;-2.144;2022-09-09T15:25:54;11.45;;;3.45;;
27365;SDS011;14837;57.148;-2.144;2022-09-09T15:28:22;16.75;;;2.95;;
27365;SDS011;14837;57.148;-2.144;2022-09-09T15:30:51;14.45;;;3.38;;
27365;SDS011;14837;57.148;-2.144;2022-09-09T15:33:19;9.52;;;2.70;;
27365;SDS011;14837;57.148;-2.144;2022-09-09T15:35:45;13.93;;;3.88;;
27365;SDS011;14837;57.148;-2.144;2022-09-09T15:38:12;8.95;;;2.47;;
27365;SDS011;14837;57.148;-2.144;2022-09-09T15:40:43;11.70;;;3.10;;
27365;SDS011;14837;57.148;-2.144;2022-09-09T15:43:09;10.30;;;2.78;;
27365;SDS011;14837;57.148;-2.144;2022-09-09T15:45:37;10.57;;;2.67;;
27365;SDS011;14837;57.148;-2.144;2022-09-09T15:48:03;10.57;;;3.10;;
27365;SDS011;14837;57.148;-2.144;2022-09-09T15:50:30;14.43;;;4.55;;
27365;SDS011;14837;57.148;-2.144;2022-09-09T15:52:59;7.65;;;2.50;;
27365;SDS011;14837;57.148;-2.144;2022-09-09T15:55:25;11.25;;;3.22;;
27365;SDS011;14837;57.148;-2.144;2022-09-09T15:57:52;10.93;;;3.13;;
27365;SDS011;14837;57.148;-2.144;2022-09-09T16:00:19;11.15;;;3.22;;
27365;SDS011;14837;57.148;-2.144;2022-09-09T16:02:46;8.95;;;3.00;;
27365;SDS011;14837;57.148;-2.144;2022-09-09T16:05:13;9.52;;;2.70;;
27365;SDS011;14837;57.148;-2.144;2022-09-09T16:07:39;13.65;;;3.38;;
27365;SDS011;14837;57.148;-2.144;2022-09-09T16:10:08;11.35;;;3.05;;
27365;SDS011;14837;57.148;-2.144;2022-09-09T16:12:35;12.23;;;3.00;;
27365;SDS011;14837;57.148;-2.144;2022-09-09T16:15:02;6.63;;;2.55;;
27365;SDS011;14837;57.148;-2.144;2022-09-09T16:17:28;11.07;;;2.95;;
27365;SDS011;14837;57.148;-2.144;2022-09-09T16:19:55;8.57;;;3.78;;
27365;SDS011;14837;57.148;-2.144;2022-09-09T16:22:23;13.68;;;3.35;;
27365;SDS011;14837;57.148;-2.144;2022-09-09T16:24:50;11.45;;;3.58;;
27365;SDS011;14837;57.148;-2.144;2022-09-09T16:27:17;14.38;;;4.35;;
27365;SDS011;14837;57.148;-2.144;2022-09-09T16:29:44;15.70;;;4.00;;
27365;SDS011;14837;57.148;-2.144;2022-09-09T16:32:11;19.67;;;4.90;;
27365;SDS011;14837;57.148;-2.144;2022-09-09T16:34:38;12.38;;;3.65;;
27365;SDS011;14837;57.148;-2.144;2022-09-09T16:37:04;14.13;;;4.10;;